Time;durP1;ratioP1;P1;durP2;ratioP2;P2;SDS_P1;SDS_P2;PMS_P1;PMS_P2;Temp;Humidity;BMP_temperature;BMP_pressure;BME280_temperature;BME280_humidity;BME280_pressure;Samples;Min_cycle;Max_cycle;Signal;HPM_P1;HPM_P2
2023/05/04 00:00:06;;;;;;;2.07;1.67;;;16.30;70.40;;;;;;6027919;23;20401;-66
2023/05/04 00:02:36;;;;;;;2.50;2.00;;;16.20;70.10;;;;;;6053941;23;20413;-66
2023/05/04 00:05:06;;;;;;;2.57;1.57;;;16.20;70.30;;;;;;6053995;23;20439;-64
2023/05/04 00:07:34;;;;;;;2.47;1.80;;;16.30;70.30;;;;;;6029912;23;20432;-66
2023/05/04 00:10:03;;;;;;;2.57;2.03;;;16.20;70.10;;;;;;6029594;23;20417;-66
2023/05/04 00:12:32;;;;;;;2.60;1.90;;;16.20;70.20;;;;;;6029450;23;20420;-67
2023/05/04 00:15:00;;;;;;;4.67;1.83;;;16.30;70.20;;;;;;6002947;23;20891;-65
2023/05/04 00:17:29;;;;;;;2.57;2.30;;;16.30;70.30;;;;;;6028312;23;20417;-65
2023/05/04 00:19:58;;;;;;;2.43;1.97;;;16.20;70.20;;;;;;6030343;23;20982;-65
2023/05/04 00:22:26;;;;;;;3.93;2.30;;;16.20;70.20;;;;;;6053354;23;20861;-66
2023/05/04 00:24:55;;;;;;;3.20;2.20;;;16.20;70.20;;;;;;6029111;23;20411;-65
2023/05/04 00:27:23;;;;;;;2.70;2.00;;;16.20;70.30;;;;;;6053874;23;20399;-66
2023/05/04 00:29:51;;;;;;;3.00;2.13;;;16.20;70.10;;;;;;6028312;23;20435;-65
2023/05/04 00:32:20;;;;;;;3.50;2.30;;;16.20;70.10;;;;;;6053662;23;20415;-67
2023/05/04 00:34:48;;;;;;;2.40;1.57;;;16.20;70.20;;;;;;6029166;23;20468;-66
2023/05/04 00:37:18;;;;;;;2.83;1.67;;;16.20;70.20;;;;;;6030052;23;20968;-66
2023/05/04 00:39:46;;;;;;;2.67;1.90;;;16.20;70.10;;;;;;6029805;23;20397;-65
2023/05/04 00:42:15;;;;;;;3.07;2.07;;;16.20;70.10;;;;;;6028258;23;20938;-64
2023/05/04 00:44:44;;;;;;;3.30;2.10;;;16.20;70.00;;;;;;6028753;23;20757;-66
2023/05/04 00:47:12;;;;;;;2.10;1.53;;;16.20;70.20;;;;;;6029191;23;20462;-66
2023/05/04 00:49:41;;;;;;;3.20;1.93;;;16.20;70.20;;;;;;6030032;23;20775;-67
2023/05/04 00:52:13;;;;;;;2.30;1.97;;;16.20;70.20;;;;;;6029559;23;20934;-66
2023/05/04 00:54:46;;;;;;;2.43;2.17;;;16.20;70.10;;;;;;6028283;23;20476;-65
2023/05/04 00:57:16;;;;;;;2.30;1.90;;;16.20;70.10;;;;;;6053778;23;20421;-65
2023/05/04 00:59:46;;;;;;;4.50;1.90;;;16.20;70.00;;;;;;6028560;23;20443;-66
2023/05/04 01:02:14;;;;;;;2.57;2.20;;;16.20;70.00;;;;;;6051962;23;20421;-66
2023/05/04 01:04:43;;;;;;;2.70;2.00;;;16.20;70.20;;;;;;6028599;23;20441;-66
2023/05/04 01:07:19;;;;;;;2.20;1.80;;;16.20;70.10;;;;;;6026858;23;20878;-66
2023/05/04 01:10:01;;;;;;;2.60;2.40;;;16.20;70.10;;;;;;6029720;23;20405;-66
2023/05/04 01:12:37;;;;;;;2.57;1.93;;;16.20;70.20;;;;;;6029123;23;20428;-67
2023/05/04 01:15:08;;;;;;;2.67;1.67;;;16.20;70.10;;;;;;6054015;23;20443;-66
2023/05/04 01:17:37;;;;;;;3.30;2.00;;;16.20;70.10;;;;;;6029860;23;20807;-65
2023/05/04 01:20:08;;;;;;;3.33;2.20;;;16.20;70.00;;;;;;6030617;23;20401;-66
2023/05/04 01:22:38;;;;;;;2.67;1.97;;;16.20;70.10;;;;;;6029375;23;20462;-66
2023/05/04 01:25:08;;;;;;;3.10;2.00;;;16.20;70.00;;;;;;6028475;23;20452;-66
2023/05/04 01:27:46;;;;;;;2.50;1.80;;;16.20;70.10;;;;;;6031580;23;20385;-66
2023/05/04 01:30:20;;;;;;;3.10;2.13;;;16.20;70.20;;;;;;6031094;23;20516;-66
2023/05/04 01:32:50;;;;;;;2.10;1.80;;;16.20;70.20;;;;;;6030459;23;20547;-66
2023/05/04 01:35:19;;;;;;;2.30;1.80;;;16.20;70.10;;;;;;6029512;23;20990;-66
2023/05/04 01:37:48;;;;;;;2.80;2.10;;;16.20;70.00;;;;;;6031446;23;20941;-66
2023/05/04 01:40:18;;;;;;;3.03;2.23;;;16.10;70.00;;;;;;6030879;23;20473;-64
2023/05/04 01:42:47;;;;;;;3.13;2.37;;;16.20;70.40;;;;;;6030536;23;20415;-65
2023/05/04 01:45:15;;;;;;;2.43;1.73;;;16.20;70.00;;;;;;6030959;23;20424;-65
2023/05/04 01:47:45;;;;;;;2.50;1.87;;;16.20;70.20;;;;;;6030406;23;20408;-66
2023/05/04 01:50:13;;;;;;;3.00;1.97;;;16.10;70.00;;;;;;6030770;23;20436;-67
2023/05/04 01:52:41;;;;;;;2.70;2.43;;;16.10;69.90;;;;;;6030789;23;20931;-65
2023/05/04 01:55:11;;;;;;;2.97;1.90;;;16.10;69.90;;;;;;6030082;23;20556;-64
2023/05/04 01:57:39;;;;;;;2.77;1.90;;;16.10;70.10;;;;;;6029353;23;20425;-66
2023/05/04 02:00:09;;;;;;;2.20;1.70;;;16.10;70.20;;;;;;6031392;23;20397;-66
2023/05/04 02:02:43;;;;;;;2.90;1.57;;;16.10;70.10;;;;;;6056462;23;20487;-66
2023/05/04 02:05:16;;;;;;;2.50;1.80;;;16.10;70.10;;;;;;6032491;23;20397;-67
2023/05/04 02:07:44;;;;;;;2.57;2.20;;;16.10;70.10;;;;;;6033240;23;20914;-65
2023/05/04 02:10:14;;;;;;;2.60;2.10;;;16.10;70.00;;;;;;6031576;23;20986;-66
2023/05/04 02:12:42;;;;;;;2.50;2.20;;;16.10;70.10;;;;;;6055514;23;20884;-65
2023/05/04 02:15:11;;;;;;;2.20;1.90;;;16.10;70.00;;;;;;6031409;23;20432;-65
2023/05/04 02:17:40;;;;;;;3.60;2.30;;;16.10;70.00;;;;;;6032148;23;20417;-66
2023/05/04 02:20:09;;;;;;;3.20;2.30;;;16.10;70.10;;;;;;6033991;23;20416;-66
2023/05/04 02:22:38;;;;;;;2.10;1.83;;;16.00;70.00;;;;;;6033393;23;20433;-66
2023/05/04 02:25:07;;;;;;;2.50;1.80;;;16.10;70.20;;;;;;6032458;23;20527;-65
2023/05/04 02:27:38;;;;;;;2.37;1.83;;;16.10;70.20;;;;;;6032250;23;20392;-67
2023/05/04 02:30:08;;;;;;;2.47;1.80;;;16.10;70.00;;;;;;6033129;23;20404;-66
2023/05/04 02:32:36;;;;;;;4.23;1.67;;;16.10;69.90;;;;;;6032500;23;20420;-65
2023/05/04 02:35:05;;;;;;;2.60;2.07;;;16.10;70.20;;;;;;6032591;23;20472;-64
2023/05/04 02:37:34;;;;;;;2.37;2.17;;;16.10;70.00;;;;;;6055855;23;20523;-66
2023/05/04 02:40:04;;;;;;;3.20;2.20;;;16.10;70.20;;;;;;6033014;23;20392;-65
2023/05/04 02:42:33;;;;;;;2.43;1.60;;;16.10;70.20;;;;;;6033628;23;20744;-66
2023/05/04 02:45:03;;;;;;;2.50;2.20;;;16.10;70.20;;;;;;6058881;23;20867;-66
2023/05/04 02:47:31;;;;;;;3.00;2.10;;;16.00;70.00;;;;;;6031619;23;20491;-65
2023/05/04 02:50:01;;;;;;;2.80;2.20;;;16.00;70.00;;;;;;6056554;23;20440;-66
2023/05/04 02:52:32;;;;;;;2.63;2.40;;;16.00;70.10;;;;;;6033832;23;20471;-66
2023/05/04 02:55:01;;;;;;;3.00;2.03;;;16.00;70.00;;;;;;6031249;23;20981;-66
2023/05/04 02:57:29;;;;;;;2.63;1.97;;;16.00;70.10;;;;;;6032500;23;20891;-66
2023/05/04 02:59:58;;;;;;;2.33;1.70;;;16.00;70.00;;;;;;6031733;23;20440;-66
2023/05/04 03:02:27;;;;;;;2.70;1.90;;;16.00;70.20;;;;;;6030594;23;20425;-66
2023/05/04 03:04:56;;;;;;;2.07;1.60;;;16.00;70.10;;;;;;6030808;23;20779;-66
2023/05/04 03:07:24;;;;;;;2.73;1.80;;;16.00;70.10;;;;;;6031500;23;20467;-67
2023/05/04 03:09:52;;;;;;;2.47;1.83;;;16.00;70.40;;;;;;6054291;23;20452;-66
2023/05/04 03:12:21;;;;;;;2.00;1.80;;;16.00;70.20;;;;;;6028957;23;20511;-66
2023/05/04 03:14:49;;;;;;;2.47;2.00;;;16.00;70.10;;;;;;6053191;23;20460;-65
2023/05/04 03:17:17;;;;;;;2.40;2.07;;;15.90;70.10;;;;;;6056004;23;20735;-66
2023/05/04 03:19:47;;;;;;;2.37;1.80;;;16.00;70.00;;;;;;6031279;23;20460;-65
2023/05/04 03:22:15;;;;;;;1.80;1.50;;;16.00;70.20;;;;;;6031844;23;20751;-65
2023/05/04 03:24:44;;;;;;;2.40;1.60;;;16.00;70.10;;;;;;6029112;23;20437;-67
2023/05/04 03:27:13;;;;;;;1.90;1.53;;;15.90;70.00;;;;;;6055368;23;20726;-65
2023/05/04 03:29:41;;;;;;;2.47;1.90;;;16.00;70.10;;;;;;6055604;23;20432;-66
2023/05/04 03:32:10;;;;;;;2.10;1.70;;;16.00;70.00;;;;;;6030424;23;20803;-67
2023/05/04 03:34:39;;;;;;;2.43;2.13;;;16.00;70.10;;;;;;6030138;23;20389;-65
2023/05/04 03:37:09;;;;;;;3.17;2.20;;;16.00;70.20;;;;;;6031225;23;20485;-64
2023/05/04 03:39:37;;;;;;;2.97;1.90;;;16.00;70.10;;;;;;6006870;23;20490;-65
2023/05/04 03:42:05;;;;;;;2.80;1.73;;;15.90;70.10;;;;;;6056401;23;20451;-66
2023/05/04 03:44:33;;;;;;;2.07;1.50;;;16.00;70.20;;;;;;6008564;23;20389;-64
2023/05/04 03:47:02;;;;;;;2.80;1.50;;;15.90;70.20;;;;;;6030681;23;20492;-64
2023/05/04 03:49:30;;;;;;;3.17;2.17;;;15.90;70.20;;;;;;6030323;23;20872;-66
2023/05/04 03:51:59;;;;;;;2.37;1.70;;;15.90;70.20;;;;;;6030988;23;20475;-66
2023/05/04 03:54:28;;;;;;;2.00;1.60;;;15.90;70.10;;;;;;6028425;23;20773;-64
2023/05/04 03:56:57;;;;;;;2.10;1.90;;;15.90;70.10;;;;;;6031019;23;20732;-65
2023/05/04 03:59:25;;;;;;;2.43;1.70;;;15.90;70.20;;;;;;6030063;23;20417;-64
2023/05/04 04:01:54;;;;;;;2.23;1.70;;;15.90;70.10;;;;;;6028432;23;20455;-65
2023/05/04 04:04:22;;;;;;;2.03;1.67;;;15.90;70.00;;;;;;6029196;23;20802;-66
2023/05/04 04:06:51;;;;;;;5.77;2.03;;;15.90;70.10;;;;;;6053420;23;20424;-64
2023/05/04 04:09:19;;;;;;;3.57;1.57;;;15.90;70.10;;;;;;6030529;23;20393;-64
2023/05/04 04:11:49;;;;;;;1.77;1.30;;;15.90;70.20;;;;;;6053154;23;20433;-65
2023/05/04 04:14:17;;;;;;;2.20;1.50;;;15.90;70.20;;;;;;6031319;23;20397;-66
2023/05/04 04:16:46;;;;;;;2.13;1.70;;;15.90;70.10;;;;;;6029675;23;20852;-66
2023/05/04 04:19:14;;;;;;;2.10;1.87;;;15.90;70.20;;;;;;6029967;23;20511;-65
2023/05/04 04:21:42;;;;;;;2.73;2.10;;;15.90;70.00;;;;;;6029489;23;20744;-66
2023/05/04 04:24:11;;;;;;;2.13;1.50;;;15.90;70.00;;;;;;6054047;23;20468;-66
2023/05/04 04:26:39;;;;;;;1.90;1.60;;;15.80;70.00;;;;;;6029012;23;21088;-65
2023/05/04 04:29:08;;;;;;;2.27;2.00;;;15.90;70.10;;;;;;6054552;23;20875;-65
2023/05/04 04:31:38;;;;;;;2.50;1.87;;;15.80;70.10;;;;;;6028664;23;20441;-65
2023/05/04 04:34:06;;;;;;;2.93;1.73;;;15.80;70.30;;;;;;6029362;23;20424;-66
2023/05/04 04:36:35;;;;;;;2.17;1.77;;;15.80;70.10;;;;;;6053382;23;20665;-65
2023/05/04 04:39:04;;;;;;;2.10;1.70;;;15.80;70.10;;;;;;6031580;23;20811;-66
2023/05/04 04:41:33;;;;;;;3.10;1.50;;;15.80;70.20;;;;;;6053384;23;20700;-66
2023/05/04 04:44:01;;;;;;;2.73;1.77;;;15.80;70.20;;;;;;6029455;23;20488;-64
2023/05/04 04:46:31;;;;;;;2.70;1.47;;;15.80;70.10;;;;;;6029105;23;20468;-65
2023/05/04 04:48:59;;;;;;;3.00;1.87;;;15.80;70.40;;;;;;6030734;23;20971;-65
2023/05/04 04:51:28;;;;;;;2.50;1.87;;;15.80;70.30;;;;;;6029746;23;20433;-66
2023/05/04 04:53:56;;;;;;;2.37;1.87;;;15.80;70.50;;;;;;6030612;23;20463;-66
2023/05/04 04:56:25;;;;;;;2.83;1.90;;;15.80;70.30;;;;;;6029203;23;20440;-64
2023/05/04 04:58:53;;;;;;;2.20;1.90;;;15.80;70.30;;;;;;6054514;23;20433;-65
2023/05/04 05:01:21;;;;;;;2.07;1.70;;;15.80;70.50;;;;;;6054297;23;20440;-66
2023/05/04 05:03:51;;;;;;;2.60;1.70;;;15.80;70.30;;;;;;6031582;23;20424;-66
2023/05/04 05:06:19;;;;;;;1.80;1.50;;;15.80;70.30;;;;;;6030478;23;20990;-66
2023/05/04 05:08:48;;;;;;;2.10;1.53;;;15.80;70.50;;;;;;6032828;23;20487;-64
2023/05/04 05:11:16;;;;;;;2.10;1.80;;;15.70;70.40;;;;;;6030902;23;20447;-71
2023/05/04 05:13:44;;;;;;;2.00;1.60;;;15.80;70.30;;;;;;6009127;23;20436;-72
2023/05/04 05:16:13;;;;;;;2.03;1.33;;;15.70;70.10;;;;;;6055856;23;21011;-72
2023/05/04 05:18:41;;;;;;;2.50;2.10;;;15.70;70.20;;;;;;6032957;23;20705;-72
2023/05/04 05:21:12;;;;;;;2.70;1.53;;;15.70;69.70;;;;;;6031772;23;20968;-72
2023/05/04 05:23:40;;;;;;;2.10;1.73;;;15.70;69.90;;;;;;6033343;23;20922;-72
2023/05/04 05:26:08;;;;;;;2.93;1.80;;;15.70;70.20;;;;;;6032265;23;20436;-72
2023/05/04 05:28:37;;;;;;;1.97;1.70;;;15.70;70.30;;;;;;6033496;23;20397;-72
2023/05/04 05:31:05;;;;;;;2.60;1.60;;;15.70;70.50;;;;;;6031465;23;20447;-72
2023/05/04 05:33:34;;;;;;;2.87;2.00;;;15.70;69.40;;;;;;6056412;23;20447;-72
2023/05/04 05:36:04;;;;;;;3.40;1.80;;;15.70;70.00;;;;;;6054157;23;20523;-72
2023/05/04 05:38:34;;;;;;;2.70;2.30;;;15.70;70.20;;;;;;6032001;23;20377;-72
2023/05/04 05:41:02;;;;;;;2.87;1.70;;;15.70;69.60;;;;;;6030501;23;20756;-72
2023/05/04 05:43:32;;;;;;;2.63;2.00;;;15.70;70.00;;;;;;6056601;23;21061;-65
2023/05/04 05:46:00;;;;;;;2.50;1.70;;;15.70;69.40;;;;;;6004109;23;20483;-66
2023/05/04 05:48:28;;;;;;;2.20;1.80;;;15.70;69.50;;;;;;6031433;23;20401;-64
2023/05/04 05:50:57;;;;;;;2.40;1.83;;;15.70;69.60;;;;;;6029682;23;20755;-66
2023/05/04 05:53:25;;;;;;;3.40;1.73;;;15.70;68.90;;;;;;6032170;23;20409;-64
2023/05/04 05:55:55;;;;;;;4.17;2.43;;;15.70;69.20;;;;;;6027700;23;20464;-65
2023/05/04 05:58:24;;;;;;;4.13;1.70;;;15.70;68.70;;;;;;6031482;23;20377;-65
2023/05/04 06:00:52;;;;;;;2.13;1.73;;;15.70;69.80;;;;;;6006708;23;20436;-65
2023/05/04 06:03:20;;;;;;;1.90;1.63;;;15.60;69.70;;;;;;6054759;23;20419;-64
2023/05/04 06:05:49;;;;;;;2.60;2.30;;;15.70;69.50;;;;;;6131652;23;20437;-66
2023/05/04 06:08:17;;;;;;;2.50;1.70;;;15.60;68.90;;;;;;6057091;23;20748;-65
2023/05/04 06:10:46;;;;;;;2.80;2.23;;;15.60;69.40;;;;;;6054534;23;20875;-65
2023/05/04 06:13:16;;;;;;;2.30;1.70;;;15.60;69.00;;;;;;6028847;23;20500;-65
2023/05/04 06:15:51;;;;;;;2.70;1.83;;;15.60;69.10;;;;;;6054508;23;20440;-65
2023/05/04 06:18:20;;;;;;;3.00;1.80;;;15.60;69.30;;;;;;6030758;23;20435;-64
2023/05/04 06:20:48;;;;;;;2.20;1.80;;;15.70;69.70;;;;;;6029920;23;20607;-65
2023/05/04 06:23:16;;;;;;;2.20;1.90;;;15.70;69.90;;;;;;6029485;23;20409;-65
2023/05/04 06:25:45;;;;;;;2.27;1.87;;;15.70;70.00;;;;;;6029128;23;20464;-65
2023/05/04 06:28:13;;;;;;;2.70;1.77;;;15.70;70.00;;;;;;6030386;23;20918;-64
2023/05/04 06:30:43;;;;;;;2.60;2.17;;;15.70;69.50;;;;;;6030414;23;20441;-64
2023/05/04 06:33:12;;;;;;;2.60;2.07;;;15.70;69.80;;;;;;6030573;23;20420;-66
2023/05/04 06:35:40;;;;;;;3.53;2.23;;;15.70;69.80;;;;;;6054539;23;20408;-65
2023/05/04 06:38:08;;;;;;;3.00;2.23;;;15.70;69.30;;;;;;6028824;23;20484;-65
2023/05/04 06:40:37;;;;;;;2.73;2.20;;;15.70;69.30;;;;;;6006748;23;20749;-65
2023/05/04 06:43:05;;;;;;;3.73;2.60;;;15.70;69.30;;;;;;6029836;23;20440;-64
2023/05/04 06:45:34;;;;;;;3.53;1.97;;;15.70;68.70;;;;;;6030628;23;20411;-64
2023/05/04 06:48:05;;;;;;;2.57;2.00;;;15.70;69.30;;;;;;6029805;23;20428;-65
2023/05/04 06:50:34;;;;;;;2.70;2.30;;;15.70;69.10;;;;;;6055289;23;20475;-65
2023/05/04 06:53:04;;;;;;;2.60;1.70;;;15.70;68.80;;;;;;6055942;23;20894;-66
2023/05/04 06:55:32;;;;;;;2.33;2.13;;;15.70;69.10;;;;;;6029828;23;20497;-65
2023/05/04 06:58:00;;;;;;;2.70;2.50;;;15.70;68.60;;;;;;6031122;23;20443;-65
2023/05/04 07:00:30;;;;;;;2.33;1.90;;;15.70;68.10;;;;;;6031296;23;20417;-66
2023/05/04 07:02:58;;;;;;;3.13;2.20;;;15.70;68.60;;;;;;6030219;23;20413;-66
2023/05/04 07:05:28;;;;;;;2.80;1.90;;;15.70;68.50;;;;;;6029827;23;20539;-65
2023/05/04 07:07:58;;;;;;;3.20;2.60;;;15.70;67.90;;;;;;6031391;23;20377;-64
2023/05/04 07:10:27;;;;;;;3.60;2.60;;;15.70;67.80;;;;;;6031402;23;20483;-64
2023/05/04 07:12:56;;;;;;;3.73;2.20;;;15.70;68.20;;;;;;6030582;23;21053;-65
2023/05/04 07:15:24;;;;;;;2.60;2.07;;;15.80;68.30;;;;;;6054915;23;20998;-64
2023/05/04 07:17:52;;;;;;;2.30;2.10;;;15.80;68.30;;;;;;6053125;23;20906;-65
2023/05/04 07:20:21;;;;;;;3.60;2.07;;;15.80;68.50;;;;;;6056281;23;20499;-66
2023/05/04 07:22:55;;;;;;;4.03;2.80;;;15.90;68.60;;;;;;6030827;23;20417;-65
2023/05/04 07:25:24;;;;;;;4.83;2.90;;;16.00;66.10;;;;;;6029082;23;20468;-65
2023/05/04 07:27:53;;;;;;;3.03;2.17;;;16.00;66.60;;;;;;6054406;23;20484;-66
2023/05/04 07:30:21;;;;;;;3.93;2.40;;;16.00;67.30;;;;;;6053737;23;20459;-64
2023/05/04 07:32:50;;;;;;;3.43;2.20;;;16.00;67.50;;;;;;6029365;23;20404;-65
2023/05/04 07:35:19;;;;;;;3.30;2.20;;;15.90;67.70;;;;;;6054026;23;20733;-65
2023/05/04 07:37:48;;;;;;;3.30;1.80;;;15.90;68.20;;;;;;6052524;23;20736;-66
2023/05/04 07:40:17;;;;;;;3.87;2.37;;;15.90;68.50;;;;;;6053096;23;20476;-65
2023/05/04 07:42:45;;;;;;;4.83;2.20;;;15.90;68.70;;;;;;6031567;23;20428;-64
2023/05/04 07:45:15;;;;;;;2.67;1.80;;;15.90;68.90;;;;;;6028734;23;20851;-64
2023/05/04 07:47:44;;;;;;;3.77;2.17;;;15.90;69.00;;;;;;6026934;23;20746;-65
2023/05/04 07:50:13;;;;;;;2.60;1.60;;;15.90;69.10;;;;;;6002440;23;20456;-64
2023/05/04 07:52:41;;;;;;;3.77;1.97;;;15.90;69.00;;;;;;6049929;23;20424;-64
2023/05/04 07:55:10;;;;;;;2.67;1.80;;;15.90;69.10;;;;;;6024992;23;20393;-64
2023/05/04 07:57:40;;;;;;;2.10;1.70;;;15.90;69.30;;;;;;6026823;23;20417;-64
2023/05/04 08:00:10;;;;;;;3.80;2.20;;;15.90;69.10;;;;;;6051818;23;20514;-65
2023/05/04 08:02:41;;;;;;;3.67;2.30;;;15.90;69.30;;;;;;6054126;23;20413;-64
2023/05/04 08:05:10;;;;;;;3.20;2.20;;;15.90;69.40;;;;;;6027854;23;20538;-66
2023/05/04 08:07:38;;;;;;;2.63;2.43;;;15.90;69.40;;;;;;6052813;23;20385;-64
2023/05/04 08:10:08;;;;;;;2.53;1.97;;;16.00;69.40;;;;;;6027902;23;20396;-65
2023/05/04 08:12:36;;;;;;;3.63;1.63;;;16.00;69.60;;;;;;6027976;23;20840;-64
2023/05/04 08:15:08;;;;;;;2.50;2.10;;;16.00;69.50;;;;;;6052411;23;20444;-64
2023/05/04 08:17:38;;;;;;;2.33;2.13;;;16.00;69.70;;;;;;6027132;23;20711;-64
2023/05/04 08:20:08;;;;;;;3.47;1.97;;;16.00;69.60;;;;;;6027962;23;20447;-65
2023/05/04 08:22:37;;;;;;;3.80;1.83;;;16.00;69.60;;;;;;6028778;23;20523;-65
2023/05/04 08:25:06;;;;;;;2.30;1.77;;;16.00;69.60;;;;;;6050901;23;20483;-72
2023/05/04 08:27:35;;;;;;;2.70;1.80;;;16.00;69.60;;;;;;6053880;23;20949;-72
2023/05/04 08:30:05;;;;;;;4.00;2.30;;;16.00;69.70;;;;;;6004665;23;20413;-72
2023/05/04 08:32:34;;;;;;;2.13;1.73;;;16.00;69.70;;;;;;6051692;23;20978;-72
2023/05/04 08:35:03;;;;;;;4.20;1.80;;;16.00;69.70;;;;;;6027602;23;20435;-67
2023/05/04 08:37:32;;;;;;;7.73;2.33;;;16.00;69.80;;;;;;6051477;23;20895;-65
2023/05/04 08:40:00;;;;;;;2.50;2.23;;;16.00;69.80;;;;;;6029045;23;20408;-66
2023/05/04 08:42:28;;;;;;;2.93;2.00;;;16.00;69.90;;;;;;6029195;23;20468;-65
2023/05/04 08:44:58;;;;;;;2.37;2.17;;;16.00;69.90;;;;;;6028705;23;20734;-65
2023/05/04 08:47:27;;;;;;;3.27;1.93;;;16.00;69.80;;;;;;5983958;23;1090954;-65
2023/05/04 08:49:57;;;;;;;2.43;1.80;;;16.00;69.90;;;;;;6031059;23;20262;-65
2023/05/04 08:52:27;;;;;;;2.30;1.73;;;16.00;69.90;;;;;;6031183;23;20490;-64
2023/05/04 08:54:56;;;;;;;4.50;2.07;;;16.00;70.00;;;;;;6032209;23;20392;-64
2023/05/04 08:57:25;;;;;;;3.53;2.00;;;16.00;71.30;;;;;;6130832;23;20412;-64
2023/05/04 08:59:55;;;;;;;3.23;1.70;;;16.00;70.00;;;;;;6031502;23;20476;-65
2023/05/04 09:02:24;;;;;;;4.50;2.27;;;16.00;70.00;;;;;;6031875;23;20440;-65
2023/05/04 09:04:54;;;;;;;3.40;1.90;;;16.00;70.00;;;;;;6029254;23;20502;-65
2023/05/04 09:07:23;;;;;;;2.90;2.30;;;16.00;70.00;;;;;;6031132;23;20795;-65
2023/05/04 09:09:52;;;;;;;3.10;2.20;;;16.10;70.40;;;;;;6031974;23;20412;-64
2023/05/04 09:12:20;;;;;;;3.17;1.80;;;16.00;70.00;;;;;;6032043;23;20899;-66
2023/05/04 09:14:48;;;;;;;3.03;1.83;;;16.00;70.10;;;;;;6031325;23;20396;-65
2023/05/04 09:17:24;;;;;;;2.47;2.20;;;16.00;70.10;;;;;;6007102;23;20440;-66
2023/05/04 09:19:59;;;;;;;3.17;2.10;;;16.00;70.20;;;;;;6030977;23;20438;-64
2023/05/04 09:22:30;;;;;;;2.30;1.90;;;16.00;70.30;;;;;;6030894;23;20436;-65
2023/05/04 09:25:07;;;;;;;2.30;2.00;;;16.00;70.40;;;;;;6030846;23;20846;-64
2023/05/04 09:27:36;;;;;;;2.30;1.90;;;16.00;70.30;;;;;;6030696;23;20427;-65
2023/05/04 09:30:05;;;;;;;3.87;2.23;;;16.00;70.30;;;;;;6055138;23;20407;-67
2023/05/04 09:32:37;;;;;;;6.80;3.07;;;16.00;70.50;;;;;;6055152;23;20421;-65
2023/05/04 09:35:07;;;;;;;2.40;2.13;;;16.00;70.40;;;;;;6027473;23;20424;-64
2023/05/04 09:37:45;;;;;;;3.43;1.87;;;16.00;70.50;;;;;;6031208;23;20440;-66
2023/05/04 09:40:14;;;;;;;3.10;1.83;;;16.00;70.50;;;;;;6055390;23;20436;-67
2023/05/04 09:42:43;;;;;;;2.37;2.00;;;16.00;70.50;;;;;;6030255;23;20444;-64
2023/05/04 09:45:12;;;;;;;2.30;1.90;;;16.00;70.60;;;;;;6027995;23;20432;-65
2023/05/04 09:47:42;;;;;;;2.50;1.87;;;16.00;70.60;;;;;;6030116;23;20400;-64
2023/05/04 09:50:13;;;;;;;2.43;2.10;;;16.00;70.60;;;;;;6031199;23;20451;-65
2023/05/04 09:52:44;;;;;;;2.70;2.10;;;16.00;70.70;;;;;;6031148;23;20415;-66
2023/05/04 09:55:13;;;;;;;3.27;2.60;;;16.00;70.80;;;;;;6007064;23;20951;-66
2023/05/04 09:57:43;;;;;;;3.00;2.40;;;16.00;70.80;;;;;;6031053;23;20880;-65
2023/05/04 10:00:14;;;;;;;3.80;2.27;;;16.10;70.90;;;;;;6056547;23;20466;-65
2023/05/04 10:02:43;;;;;;;2.50;2.10;;;16.10;70.90;;;;;;6055885;23;21076;-64
2023/05/04 10:05:16;;;;;;;3.20;2.40;;;16.10;71.00;;;;;;6030751;23;20868;-64
2023/05/04 10:07:46;;;;;;;3.20;2.00;;;16.10;71.00;;;;;;6032171;23;20393;-65
2023/05/04 10:10:15;;;;;;;3.60;2.10;;;16.10;71.00;;;;;;6029319;23;20388;-65
2023/05/04 10:12:44;;;;;;;8.20;2.30;;;16.10;71.00;;;;;;6027512;23;20915;-65
2023/05/04 10:15:14;;;;;;;3.90;1.90;;;16.10;71.00;;;;;;6027217;23;20456;-65
2023/05/04 10:17:55;;;;;;;3.13;2.00;;;16.10;71.00;;;;;;6029480;23;20497;-64
2023/05/04 10:20:46;;;;;;;3.27;2.30;;;16.10;71.10;;;;;;6031035;23;20397;-65
2023/05/04 10:23:35;;;;;;;3.67;2.90;;;16.10;71.00;;;;;;6030482;23;20444;-63
2023/05/04 10:26:36;;;;;;;3.10;2.40;;;16.10;71.00;;;;;;6028853;23;20468;-63
2023/05/04 10:29:13;;;;;;;3.60;2.37;;;16.10;71.20;;;;;;6061149;23;20434;-64
2023/05/04 10:31:42;;;;;;;2.77;2.23;;;16.10;71.30;;;;;;6028365;23;21005;-63
2023/05/04 10:34:11;;;;;;;2.80;2.33;;;16.10;71.20;;;;;;6030753;23;20875;-71
2023/05/04 10:36:41;;;;;;;3.50;2.13;;;16.10;71.30;;;;;;6053900;23;20445;-72
2023/05/04 10:39:19;;;;;;;3.80;2.60;;;16.00;71.10;;;;;;6030834;23;20389;-72
2023/05/04 10:42:02;;;;;;;2.90;1.87;;;16.10;71.30;;;;;;6027557;23;21021;-72
2023/05/04 10:44:32;;;;;;;3.50;2.23;;;16.10;71.30;;;;;;6007256;23;20405;-72
2023/05/04 10:47:02;;;;;;;2.80;2.23;;;16.10;71.20;;;;;;6028790;23;20421;-71
2023/05/04 10:49:31;;;;;;;4.50;2.60;;;16.10;71.30;;;;;;6055669;23;20772;-72
2023/05/04 10:52:11;;;;;;;2.87;2.50;;;16.10;71.30;;;;;;6030767;23;20471;-72
2023/05/04 10:54:42;;;;;;;3.10;2.43;;;16.10;71.40;;;;;;6029411;23;20877;-71
2023/05/04 10:57:12;;;;;;;2.80;2.50;;;16.10;71.40;;;;;;6030692;23;20911;-65
2023/05/04 10:59:41;;;;;;;3.20;2.13;;;16.10;71.30;;;;;;6031316;23;20378;-65
2023/05/04 11:02:10;;;;;;;2.50;2.30;;;16.10;71.30;;;;;;6028887;23;20432;-65
2023/05/04 11:04:38;;;;;;;2.50;1.97;;;16.10;71.10;;;;;;6031362;23;20726;-64
2023/05/04 11:07:07;;;;;;;2.60;2.00;;;16.10;71.40;;;;;;6028820;23;20443;-64
2023/05/04 11:09:37;;;;;;;3.33;2.33;;;16.10;71.40;;;;;;6030593;23;20447;-66
2023/05/04 11:12:09;;;;;;;2.50;2.17;;;16.10;71.50;;;;;;6029034;23;20496;-64
2023/05/04 11:14:41;;;;;;;4.03;2.47;;;16.10;71.60;;;;;;6053264;23;20381;-64
2023/05/04 11:17:11;;;;;;;2.70;2.23;;;16.10;71.50;;;;;;6052964;23;20898;-65
2023/05/04 11:19:55;;;;;;;2.60;2.20;;;16.10;71.00;;;;;;6030669;23;20701;-65
2023/05/04 11:22:23;;;;;;;3.87;2.50;;;16.10;71.10;;;;;;6031065;23;20769;-65
2023/05/04 11:24:52;;;;;;;4.00;2.47;;;16.10;71.30;;;;;;6027967;23;20409;-64
2023/05/04 11:27:30;;;;;;;2.93;2.50;;;16.10;70.00;;;;;;6057215;23;20392;-65
2023/05/04 11:29:59;;;;;;;3.00;2.67;;;16.20;70.30;;;;;;6030200;23;20424;-66
2023/05/04 11:32:35;;;;;;;2.57;2.10;;;16.20;69.70;;;;;;6030543;23;20419;-64
2023/05/04 11:35:05;;;;;;;3.40;2.00;;;16.20;70.00;;;;;;6006400;23;20763;-72
2023/05/04 11:37:39;;;;;;;3.33;2.33;;;16.20;70.50;;;;;;6032028;23;20469;-72
2023/05/04 11:40:10;;;;;;;3.00;2.60;;;16.20;70.70;;;;;;6030506;23;20576;-72
2023/05/04 11:42:41;;;;;;;2.83;2.23;;;16.20;70.80;;;;;;6030575;23;20813;-72
2023/05/04 11:45:12;;;;;;;3.00;2.70;;;16.20;70.50;;;;;;6054309;23;20701;-72
2023/05/04 11:47:41;;;;;;;2.93;2.30;;;16.20;70.70;;;;;;6029438;23;21086;-72
2023/05/04 11:50:11;;;;;;;3.57;2.87;;;16.20;70.90;;;;;;6031446;23;20428;-72
2023/05/04 11:52:40;;;;;;;3.20;2.50;;;16.20;71.00;;;;;;6030651;23;20475;-72
2023/05/04 11:55:10;;;;;;;4.00;3.07;;;16.20;71.00;;;;;;6030995;23;20698;-72
2023/05/04 11:57:40;;;;;;;3.70;2.53;;;16.20;71.10;;;;;;6030577;23;20947;-72
2023/05/04 12:00:10;;;;;;;3.70;2.40;;;16.20;71.10;;;;;;6055044;23;20825;-72
2023/05/04 12:02:38;;;;;;;3.10;2.53;;;16.20;71.30;;;;;;6029007;23;20748;-72
2023/05/04 12:05:12;;;;;;;3.20;2.90;;;16.20;71.30;;;;;;6030421;23;21035;-72
2023/05/04 12:07:41;;;;;;;3.57;2.50;;;16.20;71.20;;;;;;6030691;23;20392;-72
2023/05/04 12:10:10;;;;;;;3.10;2.40;;;16.20;71.40;;;;;;6053290;23;20511;-72
2023/05/04 12:12:41;;;;;;;3.50;2.47;;;16.20;71.40;;;;;;6031753;23;20984;-72
2023/05/04 12:15:10;;;;;;;5.23;2.47;;;16.30;72.10;;;;;;6029796;23;20878;-72
2023/05/04 12:17:43;;;;;;;3.00;2.43;;;16.30;71.50;;;;;;6029244;23;20488;-64
2023/05/04 12:20:23;;;;;;;3.40;3.00;;;16.30;71.50;;;;;;6029648;23;20439;-65
2023/05/04 12:22:52;;;;;;;3.93;2.50;;;16.30;71.50;;;;;;6053151;23;20433;-65
2023/05/04 12:25:21;;;;;;;6.83;2.40;;;16.30;71.50;;;;;;6054160;23;20419;-65
2023/05/04 12:27:51;;;;;;;5.57;2.80;;;16.30;71.60;;;;;;6029067;23;20404;-65
2023/05/04 12:30:20;;;;;;;3.17;2.87;;;16.30;71.80;;;;;;6054022;23;20437;-64
2023/05/04 12:32:48;;;;;;;3.00;2.70;;;16.30;71.70;;;;;;6028826;23;20409;-64
2023/05/04 12:35:16;;;;;;;3.00;2.70;;;16.30;71.70;;;;;;6028626;23;20412;-67
2023/05/04 12:37:45;;;;;;;3.37;2.33;;;16.30;71.60;;;;;;6029151;23;20891;-66
2023/05/04 12:40:13;;;;;;;3.60;2.80;;;16.30;71.60;;;;;;6028150;23;20519;-66
2023/05/04 12:42:57;;;;;;;2.83;2.33;;;16.30;72.70;;;;;;6030562;23;20767;-66
2023/05/04 12:45:25;;;;;;;4.27;2.73;;;16.40;71.50;;;;;;6028396;23;20392;-66
2023/05/04 12:47:54;;;;;;;3.13;2.30;;;16.30;71.60;;;;;;6054761;23;20392;-64
2023/05/04 12:50:22;;;;;;;4.77;2.47;;;16.30;71.50;;;;;;6052524;23;20436;-65
2023/05/04 12:52:50;;;;;;;3.10;2.13;;;16.40;71.60;;;;;;6055916;23;20423;-66
2023/05/04 12:55:20;;;;;;;2.90;2.60;;;16.40;71.60;;;;;;6028764;23;20405;-64
2023/05/04 12:57:52;;;;;;;3.10;2.80;;;16.40;71.90;;;;;;6029967;23;20381;-64
2023/05/04 13:00:22;;;;;;;2.83;2.33;;;16.40;71.70;;;;;;6028687;23;20761;-64